Terminal Aerodrome Forecast
Issued by NWS

Home | Current Version | Previous Version | Text Only | Print | Product List | Glossary On
Versions: 1 2 3 4 5 6 7 8 9 10 11 12 13 14 15 16 17 18 19 20 21 22 23 24
000
FTUS41 KOKX 230800 AAA
TAFGON
TAF AMD
KGON 230834Z 2309/2406 03007KT P6SM SCT020 SCT040 BKN080
      TEMPO 2311/2313 BKN020
     FM231400 06010KT P6SM SCT025 BKN035
     FM231600 10011KT P6SM SCT040 BKN060
     FM240000 06006KT P6SM SCT040
     FM240400 02005KT P6SM FEW040=

USA.gov is the U.S. government's official web portal to all federal, state and local government web resources and services.